sensor_id;sensor_type;location;lat;lon;timestamp;P1;durP1;ratioP1;P2;durP2;ratioP2
32399;SDS011;45045;45.440;9.178;2022-08-25T00:01:17;5.70;;;2.08;;
32399;SDS011;45045;45.440;9.178;2022-08-25T00:03:47;3.95;;;2.10;;
32399;SDS011;45045;45.440;9.178;2022-08-25T00:06:13;4.80;;;2.10;;
32399;SDS011;45045;45.440;9.178;2022-08-25T00:08:40;5.68;;;2.03;;
32399;SDS011;45045;45.440;9.178;2022-08-25T00:11:07;5.40;;;2.30;;
32399;SDS011;45045;45.440;9.178;2022-08-25T00:13:39;6.13;;;2.05;;
32399;SDS011;45045;45.440;9.178;2022-08-25T00:16:08;4.90;;;2.17;;
32399;SDS011;45045;45.440;9.178;2022-08-25T00:18:35;8.27;;;2.30;;
32399;SDS011;45045;45.440;9.178;2022-08-25T00:21:03;7.70;;;2.33;;
32399;SDS011;45045;45.440;9.178;2022-08-25T00:23:29;5.65;;;2.22;;
32399;SDS011;45045;45.440;9.178;2022-08-25T00:25:55;5.15;;;2.15;;
32399;SDS011;45045;45.440;9.178;2022-08-25T00:28:21;5.18;;;2.10;;
32399;SDS011;45045;45.440;9.178;2022-08-25T00:30:47;9.30;;;2.38;;
32399;SDS011;45045;45.440;9.178;2022-08-25T00:33:13;4.03;;;1.80;;
32399;SDS011;45045;45.440;9.178;2022-08-25T00:35:40;6.60;;;1.73;;
32399;SDS011;45045;45.440;9.178;2022-08-25T00:38:07;7.55;;;2.25;;
32399;SDS011;45045;45.440;9.178;2022-08-25T00:40:34;5.50;;;1.90;;
32399;SDS011;45045;45.440;9.178;2022-08-25T00:43:01;6.68;;;2.28;;
32399;SDS011;45045;45.440;9.178;2022-08-25T00:45:29;6.78;;;1.98;;
32399;SDS011;45045;45.440;9.178;2022-08-25T00:47:55;6.55;;;1.92;;
32399;SDS011;45045;45.440;9.178;2022-08-25T00:50:21;5.60;;;1.90;;
32399;SDS011;45045;45.440;9.178;2022-08-25T00:52:49;8.07;;;2.13;;
32399;SDS011;45045;45.440;9.178;2022-08-25T00:55:23;3.92;;;1.88;;
32399;SDS011;45045;45.440;9.178;2022-08-25T00:57:54;4.50;;;1.90;;
32399;SDS011;45045;45.440;9.178;2022-08-25T01:00:33;3.63;;;1.80;;
32399;SDS011;45045;45.440;9.178;2022-08-25T01:03:01;4.03;;;1.83;;
32399;SDS011;45045;45.440;9.178;2022-08-25T01:05:27;6.00;;;1.90;;
32399;SDS011;45045;45.440;9.178;2022-08-25T01:07:54;7.03;;;2.22;;
32399;SDS011;45045;45.440;9.178;2022-08-25T01:10:22;5.68;;;1.85;;
32399;SDS011;45045;45.440;9.178;2022-08-25T01:12:49;6.40;;;1.70;;
32399;SDS011;45045;45.440;9.178;2022-08-25T01:15:18;7.05;;;2.15;;
32399;SDS011;45045;45.440;9.178;2022-08-25T01:17:50;6.32;;;1.95;;
32399;SDS011;45045;45.440;9.178;2022-08-25T01:20:18;4.40;;;1.70;;
32399;SDS011;45045;45.440;9.178;2022-08-25T01:22:48;5.60;;;1.88;;
32399;SDS011;45045;45.440;9.178;2022-08-25T01:28:23;3.70;;;1.83;;
32399;SDS011;45045;45.440;9.178;2022-08-25T01:30:49;4.95;;;1.50;;
32399;SDS011;45045;45.440;9.178;2022-08-25T01:33:15;5.25;;;1.58;;
32399;SDS011;45045;45.440;9.178;2022-08-25T01:35:43;5.53;;;1.70;;
32399;SDS011;45045;45.440;9.178;2022-08-25T01:38:11;7.43;;;2.10;;
32399;SDS011;45045;45.440;9.178;2022-08-25T01:40:38;6.55;;;2.13;;
32399;SDS011;45045;45.440;9.178;2022-08-25T01:45:31;4.82;;;1.80;;
32399;SDS011;45045;45.440;9.178;2022-08-25T01:47:57;6.40;;;1.88;;
32399;SDS011;45045;45.440;9.178;2022-08-25T01:50:23;4.53;;;1.83;;
32399;SDS011;45045;45.440;9.178;2022-08-25T01:52:58;6.32;;;1.85;;
32399;SDS011;45045;45.440;9.178;2022-08-25T01:55:42;5.40;;;1.67;;
32399;SDS011;45045;45.440;9.178;2022-08-25T01:58:19;2.53;;;1.30;;
32399;SDS011;45045;45.440;9.178;2022-08-25T02:00:48;5.70;;;1.60;;
32399;SDS011;45045;45.440;9.178;2022-08-25T02:03:15;4.47;;;1.90;;
32399;SDS011;45045;45.440;9.178;2022-08-25T02:05:42;5.53;;;1.85;;
32399;SDS011;45045;45.440;9.178;2022-08-25T02:08:08;4.63;;;1.70;;
32399;SDS011;45045;45.440;9.178;2022-08-25T02:10:36;5.07;;;1.60;;
32399;SDS011;45045;45.440;9.178;2022-08-25T02:13:02;7.03;;;1.73;;
32399;SDS011;45045;45.440;9.178;2022-08-25T02:15:28;7.22;;;1.75;;
32399;SDS011;45045;45.440;9.178;2022-08-25T02:17:54;5.47;;;1.80;;
32399;SDS011;45045;45.440;9.178;2022-08-25T02:20:21;6.35;;;1.77;;
32399;SDS011;45045;45.440;9.178;2022-08-25T02:22:48;4.63;;;1.60;;
32399;SDS011;45045;45.440;9.178;2022-08-25T02:25:16;3.45;;;1.70;;
32399;SDS011;45045;45.440;9.178;2022-08-25T02:27:42;6.07;;;1.80;;
32399;SDS011;45045;45.440;9.178;2022-08-25T02:30:10;4.90;;;1.70;;
32399;SDS011;45045;45.440;9.178;2022-08-25T02:32:37;3.00;;;1.30;;
32399;SDS011;45045;45.440;9.178;2022-08-25T02:35:03;4.28;;;1.55;;
32399;SDS011;45045;45.440;9.178;2022-08-25T02:37:30;4.78;;;1.58;;
32399;SDS011;45045;45.440;9.178;2022-08-25T02:39:56;4.68;;;1.85;;
32399;SDS011;45045;45.440;9.178;2022-08-25T02:42:21;3.53;;;1.60;;
32399;SDS011;45045;45.440;9.178;2022-08-25T02:44:48;5.65;;;2.15;;
32399;SDS011;45045;45.440;9.178;2022-08-25T02:47:15;4.80;;;1.80;;
32399;SDS011;45045;45.440;9.178;2022-08-25T02:49:40;6.28;;;1.90;;
32399;SDS011;45045;45.440;9.178;2022-08-25T02:52:06;7.30;;;2.03;;
32399;SDS011;45045;45.440;9.178;2022-08-25T02:54:32;5.38;;;1.63;;
32399;SDS011;45045;45.440;9.178;2022-08-25T02:56:59;7.93;;;2.17;;
32399;SDS011;45045;45.440;9.178;2022-08-25T02:59:24;3.55;;;1.75;;
32399;SDS011;45045;45.440;9.178;2022-08-25T03:01:50;7.85;;;1.63;;
32399;SDS011;45045;45.440;9.178;2022-08-25T03:04:16;5.53;;;1.60;;
32399;SDS011;45045;45.440;9.178;2022-08-25T03:06:43;5.70;;;1.60;;
32399;SDS011;45045;45.440;9.178;2022-08-25T03:09:09;5.20;;;1.55;;
32399;SDS011;45045;45.440;9.178;2022-08-25T03:11:35;3.50;;;1.50;;
32399;SDS011;45045;45.440;9.178;2022-08-25T03:14:02;5.07;;;1.50;;
32399;SDS011;45045;45.440;9.178;2022-08-25T03:16:31;5.78;;;1.50;;
32399;SDS011;45045;45.440;9.178;2022-08-25T03:18:58;5.28;;;1.60;;
32399;SDS011;45045;45.440;9.178;2022-08-25T03:21:24;6.32;;;1.70;;
32399;SDS011;45045;45.440;9.178;2022-08-25T03:23:50;4.57;;;1.63;;
32399;SDS011;45045;45.440;9.178;2022-08-25T03:26:16;7.03;;;1.90;;
32399;SDS011;45045;45.440;9.178;2022-08-25T03:29:02;3.85;;;1.70;;
32399;SDS011;45045;45.440;9.178;2022-08-25T03:31:32;6.43;;;1.75;;
32399;SDS011;45045;45.440;9.178;2022-08-25T03:33:59;4.60;;;1.70;;
32399;SDS011;45045;45.440;9.178;2022-08-25T03:36:26;5.25;;;2.03;;
32399;SDS011;45045;45.440;9.178;2022-08-25T03:38:52;6.20;;;1.40;;
32399;SDS011;45045;45.440;9.178;2022-08-25T03:41:19;3.78;;;1.42;;
32399;SDS011;45045;45.440;9.178;2022-08-25T03:43:51;4.50;;;1.20;;
32399;SDS011;45045;45.440;9.178;2022-08-25T03:46:22;3.40;;;1.40;;
32399;SDS011;45045;45.440;9.178;2022-08-25T03:48:49;7.65;;;1.73;;
32399;SDS011;45045;45.440;9.178;2022-08-25T03:51:25;4.03;;;1.58;;
32399;SDS011;45045;45.440;9.178;2022-08-25T03:53:53;4.57;;;1.48;;
32399;SDS011;45045;45.440;9.178;2022-08-25T03:56:18;3.92;;;1.27;;
32399;SDS011;45045;45.440;9.178;2022-08-25T03:58:45;4.05;;;1.30;;
32399;SDS011;45045;45.440;9.178;2022-08-25T04:01:11;4.40;;;1.50;;
32399;SDS011;45045;45.440;9.178;2022-08-25T04:03:38;5.85;;;1.60;;
32399;SDS011;45045;45.440;9.178;2022-08-25T04:06:04;4.60;;;1.40;;
32399;SDS011;45045;45.440;9.178;2022-08-25T04:08:31;4.63;;;1.40;;
32399;SDS011;45045;45.440;9.178;2022-08-25T04:10:57;3.78;;;1.63;;
32399;SDS011;45045;45.440;9.178;2022-08-25T04:13:23;4.15;;;1.60;;
32399;SDS011;45045;45.440;9.178;2022-08-25T04:15:48;4.43;;;1.50;;
32399;SDS011;45045;45.440;9.178;2022-08-25T04:18:14;5.97;;;1.80;;
32399;SDS011;45045;45.440;9.178;2022-08-25T04:20:40;5.53;;;1.65;;
32399;SDS011;45045;45.440;9.178;2022-08-25T04:23:07;6.18;;;1.52;;
32399;SDS011;45045;45.440;9.178;2022-08-25T04:25:34;4.57;;;1.45;;
32399;SDS011;45045;45.440;9.178;2022-08-25T04:28:06;4.60;;;1.77;;
32399;SDS011;45045;45.440;9.178;2022-08-25T04:30:32;3.60;;;1.50;;
32399;SDS011;45045;45.440;9.178;2022-08-25T04:32:58;5.90;;;1.90;;
32399;SDS011;45045;45.440;9.178;2022-08-25T04:35:24;7.30;;;1.90;;
32399;SDS011;45045;45.440;9.178;2022-08-25T04:37:50;4.50;;;1.73;;
32399;SDS011;45045;45.440;9.178;2022-08-25T04:40:15;6.70;;;2.35;;
32399;SDS011;45045;45.440;9.178;2022-08-25T04:42:41;5.90;;;1.75;;
32399;SDS011;45045;45.440;9.178;2022-08-25T04:45:08;5.30;;;1.85;;
32399;SDS011;45045;45.440;9.178;2022-08-25T04:47:38;5.45;;;2.20;;
32399;SDS011;45045;45.440;9.178;2022-08-25T04:50:04;7.40;;;2.40;;
32399;SDS011;45045;45.440;9.178;2022-08-25T04:52:31;5.47;;;2.45;;
32399;SDS011;45045;45.440;9.178;2022-08-25T04:54:57;5.05;;;2.17;;
32399;SDS011;45045;45.440;9.178;2022-08-25T04:57:24;4.50;;;2.42;;
32399;SDS011;45045;45.440;9.178;2022-08-25T04:59:50;6.82;;;2.45;;
32399;SDS011;45045;45.440;9.178;2022-08-25T05:02:16;7.80;;;2.30;;
32399;SDS011;45045;45.440;9.178;2022-08-25T05:04:42;8.48;;;2.38;;
32399;SDS011;45045;45.440;9.178;2022-08-25T05:07:07;8.45;;;2.85;;
32399;SDS011;45045;45.440;9.178;2022-08-25T05:09:33;6.50;;;2.45;;
32399;SDS011;45045;45.440;9.178;2022-08-25T05:12:02;6.65;;;2.40;;
32399;SDS011;45045;45.440;9.178;2022-08-25T05:14:28;8.70;;;2.22;;
32399;SDS011;45045;45.440;9.178;2022-08-25T05:16:55;7.47;;;2.40;;
32399;SDS011;45045;45.440;9.178;2022-08-25T05:19:21;9.15;;;2.85;;
32399;SDS011;45045;45.440;9.178;2022-08-25T05:21:50;6.22;;;2.30;;
32399;SDS011;45045;45.440;9.178;2022-08-25T05:24:17;6.65;;;2.47;;
32399;SDS011;45045;45.440;9.178;2022-08-25T05:26:44;5.60;;;2.58;;
32399;SDS011;45045;45.440;9.178;2022-08-25T05:29:09;7.65;;;2.65;;
32399;SDS011;45045;45.440;9.178;2022-08-25T05:31:35;8.20;;;2.60;;
32399;SDS011;45045;45.440;9.178;2022-08-25T05:34:05;5.70;;;2.70;;
32399;SDS011;45045;45.440;9.178;2022-08-25T05:36:31;6.43;;;2.53;;
32399;SDS011;45045;45.440;9.178;2022-08-25T05:38:58;6.32;;;2.92;;
32399;SDS011;45045;45.440;9.178;2022-08-25T05:41:25;6.90;;;3.10;;
32399;SDS011;45045;45.440;9.178;2022-08-25T05:43:52;7.90;;;3.40;;
32399;SDS011;45045;45.440;9.178;2022-08-25T05:46:19;7.10;;;3.22;;
32399;SDS011;45045;45.440;9.178;2022-08-25T05:48:46;6.68;;;3.35;;
32399;SDS011;45045;45.440;9.178;2022-08-25T05:51:13;6.07;;;2.97;;
32399;SDS011;45045;45.440;9.178;2022-08-25T05:53:41;7.32;;;3.30;;
32399;SDS011;45045;45.440;9.178;2022-08-25T05:56:08;8.73;;;3.15;;
32399;SDS011;45045;45.440;9.178;2022-08-25T05:58:34;6.68;;;2.85;;
32399;SDS011;45045;45.440;9.178;2022-08-25T06:01:01;7.63;;;3.30;;
32399;SDS011;45045;45.440;9.178;2022-08-25T06:03:46;7.80;;;2.97;;
32399;SDS011;45045;45.440;9.178;2022-08-25T06:06:13;7.03;;;3.45;;
32399;SDS011;45045;45.440;9.178;2022-08-25T06:08:40;7.65;;;3.90;;
32399;SDS011;45045;45.440;9.178;2022-08-25T06:11:06;5.70;;;3.45;;
32399;SDS011;45045;45.440;9.178;2022-08-25T06:13:32;6.57;;;3.25;;
32399;SDS011;45045;45.440;9.178;2022-08-25T06:15:58;7.05;;;3.45;;
32399;SDS011;45045;45.440;9.178;2022-08-25T06:18:25;7.97;;;3.45;;
32399;SDS011;45045;45.440;9.178;2022-08-25T06:20:51;7.07;;;3.50;;
32399;SDS011;45045;45.440;9.178;2022-08-25T06:23:17;8.50;;;4.07;;
32399;SDS011;45045;45.440;9.178;2022-08-25T06:25:48;7.13;;;3.42;;
32399;SDS011;45045;45.440;9.178;2022-08-25T06:28:16;10.50;;;3.90;;
32399;SDS011;45045;45.440;9.178;2022-08-25T06:30:42;7.53;;;4.10;;
32399;SDS011;45045;45.440;9.178;2022-08-25T06:33:08;8.90;;;3.90;;
32399;SDS011;45045;45.440;9.178;2022-08-25T06:35:33;7.70;;;4.30;;
32399;SDS011;45045;45.440;9.178;2022-08-25T06:37:59;11.30;;;4.10;;
32399;SDS011;45045;45.440;9.178;2022-08-25T06:40:24;7.47;;;4.13;;
32399;SDS011;45045;45.440;9.178;2022-08-25T06:42:50;7.75;;;3.92;;
32399;SDS011;45045;45.440;9.178;2022-08-25T06:45:16;9.43;;;4.05;;
32399;SDS011;45045;45.440;9.178;2022-08-25T06:47:42;8.77;;;4.25;;
32399;SDS011;45045;45.440;9.178;2022-08-25T06:50:08;9.13;;;4.13;;
32399;SDS011;45045;45.440;9.178;2022-08-25T06:52:35;8.75;;;3.78;;
32399;SDS011;45045;45.440;9.178;2022-08-25T06:55:01;12.70;;;4.72;;
32399;SDS011;45045;45.440;9.178;2022-08-25T06:57:27;7.70;;;4.60;;
32399;SDS011;45045;45.440;9.178;2022-08-25T06:59:53;14.32;;;5.10;;
32399;SDS011;45045;45.440;9.178;2022-08-25T07:02:19;10.15;;;4.85;;
32399;SDS011;45045;45.440;9.178;2022-08-25T07:04:45;9.32;;;4.40;;
32399;SDS011;45045;45.440;9.178;2022-08-25T07:07:10;9.30;;;5.15;;
32399;SDS011;45045;45.440;9.178;2022-08-25T07:09:36;12.90;;;4.85;;
32399;SDS011;45045;45.440;9.178;2022-08-25T07:12:02;7.80;;;4.45;;
32399;SDS011;45045;45.440;9.178;2022-08-25T07:14:28;7.45;;;4.47;;
32399;SDS011;45045;45.440;9.178;2022-08-25T07:16:55;7.40;;;4.13;;
32399;SDS011;45045;45.440;9.178;2022-08-25T07:19:20;8.52;;;3.83;;
32399;SDS011;45045;45.440;9.178;2022-08-25T07:21:47;8.10;;;4.10;;
32399;SDS011;45045;45.440;9.178;2022-08-25T07:24:15;9.95;;;4.95;;
32399;SDS011;45045;45.440;9.178;2022-08-25T07:26:43;8.68;;;4.20;;
32399;SDS011;45045;45.440;9.178;2022-08-25T07:29:18;7.47;;;3.80;;
32399;SDS011;45045;45.440;9.178;2022-08-25T07:31:45;8.07;;;4.13;;
32399;SDS011;45045;45.440;9.178;2022-08-25T07:34:11;6.93;;;3.58;;
32399;SDS011;45045;45.440;9.178;2022-08-25T07:36:55;11.35;;;4.20;;
32399;SDS011;45045;45.440;9.178;2022-08-25T07:39:22;9.48;;;3.47;;
32399;SDS011;45045;45.440;9.178;2022-08-25T07:41:48;8.93;;;3.33;;
32399;SDS011;45045;45.440;9.178;2022-08-25T07:44:15;6.35;;;3.30;;
32399;SDS011;45045;45.440;9.178;2022-08-25T07:46:40;12.55;;;3.95;;
32399;SDS011;45045;45.440;9.178;2022-08-25T07:49:06;7.28;;;3.63;;
32399;SDS011;45045;45.440;9.178;2022-08-25T07:51:32;6.18;;;3.17;;
32399;SDS011;45045;45.440;9.178;2022-08-25T07:53:58;8.88;;;3.10;;
32399;SDS011;45045;45.440;9.178;2022-08-25T07:56:24;8.65;;;3.75;;
32399;SDS011;45045;45.440;9.178;2022-08-25T07:58:50;7.38;;;3.53;;
32399;SDS011;45045;45.440;9.178;2022-08-25T08:01:16;8.65;;;3.15;;
32399;SDS011;45045;45.440;9.178;2022-08-25T08:03:47;8.88;;;3.20;;
32399;SDS011;45045;45.440;9.178;2022-08-25T08:06:14;4.80;;;2.75;;
32399;SDS011;45045;45.440;9.178;2022-08-25T08:08:42;7.68;;;3.65;;
32399;SDS011;45045;45.440;9.178;2022-08-25T08:13:50;4.40;;;2.43;;
32399;SDS011;45045;45.440;9.178;2022-08-25T08:16:17;4.47;;;2.22;;
32399;SDS011;45045;45.440;9.178;2022-08-25T08:18:44;7.35;;;2.30;;
32399;SDS011;45045;45.440;9.178;2022-08-25T08:21:11;6.53;;;2.63;;
32399;SDS011;45045;45.440;9.178;2022-08-25T08:23:42;5.75;;;2.67;;
32399;SDS011;45045;45.440;9.178;2022-08-25T08:26:08;5.15;;;2.30;;
32399;SDS011;45045;45.440;9.178;2022-08-25T08:28:34;5.22;;;2.17;;
32399;SDS011;45045;45.440;9.178;2022-08-25T08:31:00;9.43;;;2.65;;
32399;SDS011;45045;45.440;9.178;2022-08-25T08:33:26;5.32;;;2.25;;
32399;SDS011;45045;45.440;9.178;2022-08-25T08:36:26;7.75;;;2.55;;
32399;SDS011;45045;45.440;9.178;2022-08-25T08:38:45;6.40;;;2.50;;
32399;SDS011;45045;45.440;9.178;2022-08-25T08:44:14;5.70;;;2.50;;
32399;SDS011;45045;45.440;9.178;2022-08-25T08:47:10;5.82;;;2.47;;
32399;SDS011;45045;45.440;9.178;2022-08-25T08:50:10;4.47;;;1.92;;
32399;SDS011;45045;45.440;9.178;2022-08-25T08:52:48;7.15;;;1.75;;
32399;SDS011;45045;45.440;9.178;2022-08-25T08:55:30;8.23;;;1.48;;
32399;SDS011;45045;45.440;9.178;2022-08-25T09:01:15;3.30;;;1.20;;
32399;SDS011;45045;45.440;9.178;2022-08-25T09:03:51;3.88;;;1.20;;
32399;SDS011;45045;45.440;9.178;2022-08-25T09:06:43;3.53;;;1.20;;
32399;SDS011;45045;45.440;9.178;2022-08-25T09:09:13;4.70;;;1.98;;
32399;SDS011;45045;45.440;9.178;2022-08-25T09:11:47;4.88;;;1.83;;
32399;SDS011;45045;45.440;9.178;2022-08-25T09:28:24;6.32;;;1.10;;
32399;SDS011;45045;45.440;9.178;2022-08-25T09:31:07;5.72;;;1.80;;
32399;SDS011;45045;45.440;9.178;2022-08-25T09:33:36;6.03;;;1.95;;
32399;SDS011;45045;45.440;9.178;2022-08-25T09:36:02;10.98;;;2.95;;
32399;SDS011;45045;45.440;9.178;2022-08-25T09:38:29;5.85;;;1.40;;
32399;SDS011;45045;45.440;9.178;2022-08-25T09:40:56;10.80;;;2.35;;
32399;SDS011;45045;45.440;9.178;2022-08-25T09:46:41;5.97;;;2.17;;
32399;SDS011;45045;45.440;9.178;2022-08-25T09:48:50;22.33;;;6.18;;
32399;SDS011;45045;45.440;9.178;2022-08-25T09:56:24;6.32;;;1.58;;
32399;SDS011;45045;45.440;9.178;2022-08-25T09:58:56;5.45;;;1.65;;
32399;SDS011;45045;45.440;9.178;2022-08-25T10:01:50;3.58;;;1.63;;
32399;SDS011;45045;45.440;9.178;2022-08-25T10:04:28;4.13;;;1.83;;
32399;SDS011;45045;45.440;9.178;2022-08-25T10:06:59;4.97;;;1.40;;
32399;SDS011;45045;45.440;9.178;2022-08-25T10:09:28;5.43;;;1.80;;
32399;SDS011;45045;45.440;9.178;2022-08-25T10:15:22;6.28;;;1.80;;
32399;SDS011;45045;45.440;9.178;2022-08-25T10:17:51;5.28;;;1.40;;
32399;SDS011;45045;45.440;9.178;2022-08-25T10:20:20;5.05;;;1.52;;
32399;SDS011;45045;45.440;9.178;2022-08-25T10:22:48;4.30;;;1.35;;
32399;SDS011;45045;45.440;9.178;2022-08-25T10:25:15;6.57;;;2.00;;
32399;SDS011;45045;45.440;9.178;2022-08-25T10:33:35;5.60;;;1.48;;
32399;SDS011;45045;45.440;9.178;2022-08-25T10:39:06;3.67;;;1.50;;
32399;SDS011;45045;45.440;9.178;2022-08-25T10:41:52;5.20;;;1.55;;
32399;SDS011;45045;45.440;9.178;2022-08-25T10:44:37;4.65;;;1.48;;
32399;SDS011;45045;45.440;9.178;2022-08-25T11:01:46;4.50;;;1.20;;
32399;SDS011;45045;45.440;9.178;2022-08-25T11:06:51;5.57;;;1.70;;
32399;SDS011;45045;45.440;9.178;2022-08-25T11:09:23;2.95;;;1.52;;
32399;SDS011;45045;45.440;9.178;2022-08-25T11:14:22;6.63;;;1.85;;
32399;SDS011;45045;45.440;9.178;2022-08-25T11:16:56;6.55;;;1.70;;
32399;SDS011;45045;45.440;9.178;2022-08-25T11:22:22;5.57;;;1.73;;
32399;SDS011;45045;45.440;9.178;2022-08-25T11:30:37;2.87;;;1.50;;
32399;SDS011;45045;45.440;9.178;2022-08-25T11:33:04;5.65;;;1.80;;
32399;SDS011;45045;45.440;9.178;2022-08-25T11:35:32;5.85;;;1.60;;
32399;SDS011;45045;45.440;9.178;2022-08-25T11:41:30;2.50;;;1.30;;
32399;SDS011;45045;45.440;9.178;2022-08-25T11:44:43;14.10;;;2.38;;
32399;SDS011;45045;45.440;9.178;2022-08-25T11:50:07;21.77;;;5.15;;
32399;SDS011;45045;45.440;9.178;2022-08-25T11:52:55;32.65;;;3.28;;
32399;SDS011;45045;45.440;9.178;2022-08-25T11:55:30;6.28;;;1.42;;
32399;SDS011;45045;45.440;9.178;2022-08-25T11:58:23;41.88;;;4.03;;
32399;SDS011;45045;45.440;9.178;2022-08-25T12:00:56;8.88;;;1.65;;
32399;SDS011;45045;45.440;9.178;2022-08-25T12:16:40;8.35;;;1.58;;
32399;SDS011;45045;45.440;9.178;2022-08-25T12:27:19;2.70;;;1.20;;
32399;SDS011;45045;45.440;9.178;2022-08-25T12:30:19;12.70;;;1.70;;
32399;SDS011;45045;45.440;9.178;2022-08-25T12:36:10;3.97;;;1.30;;
32399;SDS011;45045;45.440;9.178;2022-08-25T12:38:51;4.10;;;1.63;;
32399;SDS011;45045;45.440;9.178;2022-08-25T12:43:49;6.05;;;1.90;;
32399;SDS011;45045;45.440;9.178;2022-08-25T13:00:12;4.47;;;1.40;;
32399;SDS011;45045;45.440;9.178;2022-08-25T13:05:52;4.07;;;1.58;;
32399;SDS011;45045;45.440;9.178;2022-08-25T13:09:33;4.35;;;1.63;;
32399;SDS011;45045;45.440;9.178;2022-08-25T13:11:43;4.28;;;1.63;;
32399;SDS011;45045;45.440;9.178;2022-08-25T13:14:32;4.28;;;1.73;;
32399;SDS011;45045;45.440;9.178;2022-08-25T13:17:03;2.67;;;1.35;;
32399;SDS011;45045;45.440;9.178;2022-08-25T13:19:29;3.38;;;1.17;;
32399;SDS011;45045;45.440;9.178;2022-08-25T13:22:00;5.65;;;1.70;;
32399;SDS011;45045;45.440;9.178;2022-08-25T13:24:34;3.55;;;1.60;;
32399;SDS011;45045;45.440;9.178;2022-08-25T13:27:04;12.55;;;2.55;;
32399;SDS011;45045;45.440;9.178;2022-08-25T13:29:34;5.13;;;1.83;;
32399;SDS011;45045;45.440;9.178;2022-08-25T13:32:13;3.90;;;1.50;;
32399;SDS011;45045;45.440;9.178;2022-08-25T13:34:48;5.55;;;1.50;;
32399;SDS011;45045;45.440;9.178;2022-08-25T13:37:15;3.80;;;1.63;;
32399;SDS011;45045;45.440;9.178;2022-08-25T13:40:14;3.50;;;1.80;;
32399;SDS011;45045;45.440;9.178;2022-08-25T13:42:43;5.93;;;1.63;;
32399;SDS011;45045;45.440;9.178;2022-08-25T13:45:12;3.88;;;1.92;;
32399;SDS011;45045;45.440;9.178;2022-08-25T13:47:41;6.47;;;1.52;;
32399;SDS011;45045;45.440;9.178;2022-08-25T13:55:18;3.40;;;1.58;;
32399;SDS011;45045;45.440;9.178;2022-08-25T13:57:46;4.15;;;1.38;;
32399;SDS011;45045;45.440;9.178;2022-08-25T14:00:11;5.65;;;2.10;;
32399;SDS011;45045;45.440;9.178;2022-08-25T14:05:14;4.88;;;1.60;;
32399;SDS011;45045;45.440;9.178;2022-08-25T14:07:55;2.85;;;1.38;;
32399;SDS011;45045;45.440;9.178;2022-08-25T14:10:36;5.38;;;1.40;;
32399;SDS011;45045;45.440;9.178;2022-08-25T14:13:08;3.03;;;1.40;;
32399;SDS011;45045;45.440;9.178;2022-08-25T14:15:52;2.63;;;1.48;;
32399;SDS011;45045;45.440;9.178;2022-08-25T14:18:19;3.60;;;1.50;;
32399;SDS011;45045;45.440;9.178;2022-08-25T14:20:51;3.55;;;1.70;;
32399;SDS011;45045;45.440;9.178;2022-08-25T14:23:22;2.65;;;1.40;;
32399;SDS011;45045;45.440;9.178;2022-08-25T14:25:51;2.85;;;1.42;;
32399;SDS011;45045;45.440;9.178;2022-08-25T14:28:20;3.17;;;1.40;;
32399;SDS011;45045;45.440;9.178;2022-08-25T14:30:48;4.38;;;1.70;;
32399;SDS011;45045;45.440;9.178;2022-08-25T14:33:16;3.70;;;1.63;;
32399;SDS011;45045;45.440;9.178;2022-08-25T14:35:46;3.40;;;1.45;;
32399;SDS011;45045;45.440;9.178;2022-08-25T14:38:14;4.32;;;1.80;;
32399;SDS011;45045;45.440;9.178;2022-08-25T14:40:40;3.92;;;1.63;;
32399;SDS011;45045;45.440;9.178;2022-08-25T14:43:06;3.67;;;1.75;;
32399;SDS011;45045;45.440;9.178;2022-08-25T14:45:33;3.00;;;1.38;;
32399;SDS011;45045;45.440;9.178;2022-08-25T14:48:02;4.43;;;1.60;;
32399;SDS011;45045;45.440;9.178;2022-08-25T14:50:31;4.47;;;1.40;;
32399;SDS011;45045;45.440;9.178;2022-08-25T14:52:57;3.10;;;1.70;;
32399;SDS011;45045;45.440;9.178;2022-08-25T14:55:23;4.55;;;1.77;;
32399;SDS011;45045;45.440;9.178;2022-08-25T14:57:49;3.13;;;1.77;;
32399;SDS011;45045;45.440;9.178;2022-08-25T15:00:15;2.42;;;1.63;;
32399;SDS011;45045;45.440;9.178;2022-08-25T15:02:41;2.53;;;1.20;;
32399;SDS011;45045;45.440;9.178;2022-08-25T15:05:09;3.67;;;1.42;;
32399;SDS011;45045;45.440;9.178;2022-08-25T15:07:38;6.10;;;1.42;;
32399;SDS011;45045;45.440;9.178;2022-08-25T15:10:22;3.78;;;1.88;;
32399;SDS011;45045;45.440;9.178;2022-08-25T15:12:48;3.88;;;1.50;;
32399;SDS011;45045;45.440;9.178;2022-08-25T15:15:14;3.58;;;1.35;;
32399;SDS011;45045;45.440;9.178;2022-08-25T15:17:40;5.10;;;1.55;;
32399;SDS011;45045;45.440;9.178;2022-08-25T15:20:08;2.85;;;1.30;;
32399;SDS011;45045;45.440;9.178;2022-08-25T15:22:34;3.00;;;1.33;;
32399;SDS011;45045;45.440;9.178;2022-08-25T15:25:00;4.55;;;1.67;;
32399;SDS011;45045;45.440;9.178;2022-08-25T15:27:26;3.28;;;1.80;;
32399;SDS011;45045;45.440;9.178;2022-08-25T15:29:52;2.50;;;1.45;;
32399;SDS011;45045;45.440;9.178;2022-08-25T15:32:18;3.42;;;1.38;;
32399;SDS011;45045;45.440;9.178;2022-08-25T15:34:43;4.30;;;1.65;;
32399;SDS011;45045;45.440;9.178;2022-08-25T15:37:10;3.50;;;1.63;;
32399;SDS011;45045;45.440;9.178;2022-08-25T15:39:38;3.25;;;1.48;;
32399;SDS011;45045;45.440;9.178;2022-08-25T15:42:05;5.30;;;1.63;;
32399;SDS011;45045;45.440;9.178;2022-08-25T15:44:32;5.20;;;1.50;;
32399;SDS011;45045;45.440;9.178;2022-08-25T15:46:58;3.28;;;1.40;;
32399;SDS011;45045;45.440;9.178;2022-08-25T15:49:24;5.32;;;1.70;;
32399;SDS011;45045;45.440;9.178;2022-08-25T15:51:51;3.10;;;1.50;;
32399;SDS011;45045;45.440;9.178;2022-08-25T15:54:18;3.60;;;1.60;;
32399;SDS011;45045;45.440;9.178;2022-08-25T15:56:45;2.95;;;1.30;;
32399;SDS011;45045;45.440;9.178;2022-08-25T15:59:11;5.07;;;1.60;;
32399;SDS011;45045;45.440;9.178;2022-08-25T16:01:37;4.30;;;1.40;;
32399;SDS011;45045;45.440;9.178;2022-08-25T16:04:04;3.75;;;1.20;;
32399;SDS011;45045;45.440;9.178;2022-08-25T16:06:31;2.70;;;1.30;;
32399;SDS011;45045;45.440;9.178;2022-08-25T16:08:57;4.22;;;1.52;;
32399;SDS011;45045;45.440;9.178;2022-08-25T16:11:25;4.85;;;1.40;;
32399;SDS011;45045;45.440;9.178;2022-08-25T16:13:53;3.35;;;1.33;;
32399;SDS011;45045;45.440;9.178;2022-08-25T16:16:20;2.75;;;1.48;;
32399;SDS011;45045;45.440;9.178;2022-08-25T16:18:47;3.60;;;1.40;;
32399;SDS011;45045;45.440;9.178;2022-08-25T16:21:15;2.60;;;1.63;;
32399;SDS011;45045;45.440;9.178;2022-08-25T16:23:43;4.60;;;1.40;;
32399;SDS011;45045;45.440;9.178;2022-08-25T16:26:10;3.53;;;1.40;;
32399;SDS011;45045;45.440;9.178;2022-08-25T16:28:36;4.45;;;1.50;;
32399;SDS011;45045;45.440;9.178;2022-08-25T16:31:03;3.55;;;1.70;;
32399;SDS011;45045;45.440;9.178;2022-08-25T16:33:29;2.67;;;1.40;;
32399;SDS011;45045;45.440;9.178;2022-08-25T16:36:09;4.10;;;1.60;;
32399;SDS011;45045;45.440;9.178;2022-08-25T16:38:41;3.80;;;1.55;;
32399;SDS011;45045;45.440;9.178;2022-08-25T16:41:08;3.67;;;1.88;;
32399;SDS011;45045;45.440;9.178;2022-08-25T16:43:36;4.22;;;1.60;;
32399;SDS011;45045;45.440;9.178;2022-08-25T16:46:06;3.58;;;1.35;;
32399;SDS011;45045;45.440;9.178;2022-08-25T16:48:35;3.50;;;1.70;;
32399;SDS011;45045;45.440;9.178;2022-08-25T16:51:08;4.72;;;1.70;;
32399;SDS011;45045;45.440;9.178;2022-08-25T16:53:35;4.82;;;1.48;;
32399;SDS011;45045;45.440;9.178;2022-08-25T16:56:20;3.78;;;1.25;;
32399;SDS011;45045;45.440;9.178;2022-08-25T16:58:50;4.40;;;1.40;;
32399;SDS011;45045;45.440;9.178;2022-08-25T17:03:46;3.60;;;1.60;;
32399;SDS011;45045;45.440;9.178;2022-08-25T17:06:14;4.47;;;1.60;;
32399;SDS011;45045;45.440;9.178;2022-08-25T17:08:40;5.20;;;1.52;;
32399;SDS011;45045;45.440;9.178;2022-08-25T17:13:37;2.97;;;1.38;;
32399;SDS011;45045;45.440;9.178;2022-08-25T17:16:05;3.30;;;1.50;;
32399;SDS011;45045;45.440;9.178;2022-08-25T17:18:31;2.28;;;1.27;;
32399;SDS011;45045;45.440;9.178;2022-08-25T17:21:00;2.95;;;1.40;;